sensor_id;sensor_type;location;lat;lon;timestamp;P1;durP1;ratioP1;P2;durP2;ratioP2
32038;SDS011;18549;42.286;22.688;2023-05-10T00:02:01;4.27;;;3.60;;
32038;SDS011;18549;42.286;22.688;2023-05-10T00:04:29;4.97;;;3.63;;
32038;SDS011;18549;42.286;22.688;2023-05-10T00:07:03;4.30;;;3.30;;
32038;SDS011;18549;42.286;22.688;2023-05-10T00:09:31;3.33;;;3.00;;
32038;SDS011;18549;42.286;22.688;2023-05-10T00:12:08;3.63;;;3.30;;
32038;SDS011;18549;42.286;22.688;2023-05-10T00:14:37;2.83;;;2.63;;
32038;SDS011;18549;42.286;22.688;2023-05-10T00:17:05;7.57;;;2.93;;
32038;SDS011;18549;42.286;22.688;2023-05-10T00:19:32;2.87;;;2.27;;
32038;SDS011;18549;42.286;22.688;2023-05-10T00:21:59;3.73;;;2.73;;
32038;SDS011;18549;42.286;22.688;2023-05-10T00:24:27;3.50;;;2.70;;
32038;SDS011;18549;42.286;22.688;2023-05-10T00:27:00;1.93;;;1.67;;
32038;SDS011;18549;42.286;22.688;2023-05-10T00:29:30;2.13;;;1.93;;
32038;SDS011;18549;42.286;22.688;2023-05-10T00:31:59;3.33;;;2.20;;
32038;SDS011;18549;42.286;22.688;2023-05-10T00:34:25;1.70;;;1.43;;
32038;SDS011;18549;42.286;22.688;2023-05-10T00:36:52;2.30;;;1.70;;
32038;SDS011;18549;42.286;22.688;2023-05-10T00:39:20;2.03;;;1.50;;
32038;SDS011;18549;42.286;22.688;2023-05-10T00:41:47;2.17;;;1.00;;
32038;SDS011;18549;42.286;22.688;2023-05-10T00:44:14;2.50;;;1.57;;
32038;SDS011;18549;42.286;22.688;2023-05-10T00:46:43;1.53;;;1.40;;
32038;SDS011;18549;42.286;22.688;2023-05-10T00:49:12;4.67;;;1.73;;
32038;SDS011;18549;42.286;22.688;2023-05-10T00:51:40;1.13;;;1.03;;
32038;SDS011;18549;42.286;22.688;2023-05-10T00:54:08;1.50;;;1.30;;
32038;SDS011;18549;42.286;22.688;2023-05-10T00:56:37;1.20;;;1.10;;
32038;SDS011;18549;42.286;22.688;2023-05-10T00:59:05;17.90;;;9.07;;
32038;SDS011;18549;42.286;22.688;2023-05-10T01:01:33;49.07;;;24.53;;
32038;SDS011;18549;42.286;22.688;2023-05-10T01:04:03;85.80;;;40.20;;
32038;SDS011;18549;42.286;22.688;2023-05-10T01:06:31;54.17;;;31.53;;
32038;SDS011;18549;42.286;22.688;2023-05-10T01:09:00;50.73;;;31.20;;
32038;SDS011;18549;42.286;22.688;2023-05-10T01:11:27;63.80;;;41.80;;
32038;SDS011;18549;42.286;22.688;2023-05-10T01:13:59;22.80;;;17.17;;
32038;SDS011;18549;42.286;22.688;2023-05-10T01:16:31;9.50;;;7.80;;
32038;SDS011;18549;42.286;22.688;2023-05-10T01:19:05;3.93;;;2.67;;
32038;SDS011;18549;42.286;22.688;2023-05-10T01:21:38;2.57;;;2.00;;
32038;SDS011;18549;42.286;22.688;2023-05-10T01:24:30;1.90;;;1.60;;
32038;SDS011;18549;42.286;22.688;2023-05-10T01:27:31;2.37;;;1.40;;
32038;SDS011;18549;42.286;22.688;2023-05-10T01:30:41;3.23;;;2.00;;
32038;SDS011;18549;42.286;22.688;2023-05-10T01:33:31;4.07;;;1.43;;
32038;SDS011;18549;42.286;22.688;2023-05-10T01:36:05;2.17;;;1.60;;
32038;SDS011;18549;42.286;22.688;2023-05-10T01:38:41;2.00;;;1.57;;
32038;SDS011;18549;42.286;22.688;2023-05-10T01:41:16;3.40;;;1.60;;
32038;SDS011;18549;42.286;22.688;2023-05-10T01:43:48;1.83;;;1.30;;
32038;SDS011;18549;42.286;22.688;2023-05-10T01:46:21;6.43;;;1.40;;
32038;SDS011;18549;42.286;22.688;2023-05-10T01:48:57;3.90;;;1.50;;
32038;SDS011;18549;42.286;22.688;2023-05-10T01:51:31;1.17;;;1.07;;
32038;SDS011;18549;42.286;22.688;2023-05-10T01:54:08;2.17;;;1.23;;
32038;SDS011;18549;42.286;22.688;2023-05-10T01:56:39;3.07;;;1.60;;
32038;SDS011;18549;42.286;22.688;2023-05-10T01:59:09;1.20;;;1.10;;
32038;SDS011;18549;42.286;22.688;2023-05-10T02:01:41;2.77;;;1.20;;
32038;SDS011;18549;42.286;22.688;2023-05-10T02:04:12;1.80;;;1.47;;
32038;SDS011;18549;42.286;22.688;2023-05-10T02:06:44;1.50;;;1.20;;
32038;SDS011;18549;42.286;22.688;2023-05-10T02:09:14;1.77;;;1.27;;
32038;SDS011;18549;42.286;22.688;2023-05-10T02:11:44;3.23;;;1.27;;
32038;SDS011;18549;42.286;22.688;2023-05-10T02:14:16;2.03;;;1.27;;
32038;SDS011;18549;42.286;22.688;2023-05-10T02:16:46;3.67;;;1.53;;
32038;SDS011;18549;42.286;22.688;2023-05-10T02:19:16;1.53;;;1.13;;
32038;SDS011;18549;42.286;22.688;2023-05-10T02:21:46;1.57;;;1.40;;
32038;SDS011;18549;42.286;22.688;2023-05-10T02:24:16;2.17;;;1.40;;
32038;SDS011;18549;42.286;22.688;2023-05-10T02:26:45;1.23;;;1.13;;
32038;SDS011;18549;42.286;22.688;2023-05-10T02:29:14;1.43;;;1.13;;
32038;SDS011;18549;42.286;22.688;2023-05-10T02:31:43;1.57;;;1.30;;
32038;SDS011;18549;42.286;22.688;2023-05-10T02:34:13;1.77;;;1.60;;
32038;SDS011;18549;42.286;22.688;2023-05-10T02:36:44;2.60;;;1.20;;
32038;SDS011;18549;42.286;22.688;2023-05-10T02:39:11;1.20;;;1.10;;
32038;SDS011;18549;42.286;22.688;2023-05-10T02:41:41;2.77;;;1.47;;
32038;SDS011;18549;42.286;22.688;2023-05-10T02:44:08;1.40;;;1.23;;
32038;SDS011;18549;42.286;22.688;2023-05-10T02:46:38;2.20;;;1.83;;
32038;SDS011;18549;42.286;22.688;2023-05-10T02:49:08;4.17;;;1.47;;
32038;SDS011;18549;42.286;22.688;2023-05-10T02:51:39;2.13;;;1.70;;
32038;SDS011;18549;42.286;22.688;2023-05-10T02:54:11;1.33;;;1.13;;
32038;SDS011;18549;42.286;22.688;2023-05-10T02:56:46;1.40;;;1.20;;
32038;SDS011;18549;42.286;22.688;2023-05-10T02:59:24;3.50;;;1.37;;
32038;SDS011;18549;42.286;22.688;2023-05-10T03:01:51;1.90;;;1.50;;
32038;SDS011;18549;42.286;22.688;2023-05-10T03:04:18;3.50;;;1.43;;
32038;SDS011;18549;42.286;22.688;2023-05-10T03:06:47;6.50;;;1.40;;
32038;SDS011;18549;42.286;22.688;2023-05-10T03:09:14;2.67;;;1.70;;
32038;SDS011;18549;42.286;22.688;2023-05-10T03:11:45;5.53;;;1.70;;
32038;SDS011;18549;42.286;22.688;2023-05-10T03:14:21;4.50;;;1.90;;
32038;SDS011;18549;42.286;22.688;2023-05-10T03:17:04;7.03;;;2.40;;
32038;SDS011;18549;42.286;22.688;2023-05-10T03:19:39;4.33;;;2.60;;
32038;SDS011;18549;42.286;22.688;2023-05-10T03:22:14;4.97;;;3.10;;
32038;SDS011;18549;42.286;22.688;2023-05-10T03:24:47;12.57;;;3.43;;
32038;SDS011;18549;42.286;22.688;2023-05-10T03:27:15;6.40;;;2.17;;
32038;SDS011;18549;42.286;22.688;2023-05-10T03:29:43;7.07;;;2.00;;
32038;SDS011;18549;42.286;22.688;2023-05-10T03:32:12;5.23;;;2.50;;
32038;SDS011;18549;42.286;22.688;2023-05-10T03:34:41;8.80;;;2.80;;
32038;SDS011;18549;42.286;22.688;2023-05-10T03:37:10;13.73;;;3.40;;
32038;SDS011;18549;42.286;22.688;2023-05-10T03:39:38;13.63;;;3.17;;
32038;SDS011;18549;42.286;22.688;2023-05-10T03:42:05;9.50;;;3.80;;
32038;SDS011;18549;42.286;22.688;2023-05-10T03:44:34;10.90;;;3.33;;
32038;SDS011;18549;42.286;22.688;2023-05-10T03:47:02;4.07;;;2.73;;
32038;SDS011;18549;42.286;22.688;2023-05-10T03:49:37;10.77;;;3.67;;
32038;SDS011;18549;42.286;22.688;2023-05-10T03:52:04;7.07;;;3.07;;
32038;SDS011;18549;42.286;22.688;2023-05-10T03:54:34;12.93;;;3.80;;
32038;SDS011;18549;42.286;22.688;2023-05-10T03:57:06;6.67;;;2.87;;
32038;SDS011;18549;42.286;22.688;2023-05-10T03:59:33;7.03;;;3.17;;
32038;SDS011;18549;42.286;22.688;2023-05-10T04:02:00;8.33;;;2.83;;
32038;SDS011;18549;42.286;22.688;2023-05-10T04:04:28;10.37;;;2.90;;
32038;SDS011;18549;42.286;22.688;2023-05-10T04:06:55;9.37;;;3.70;;
32038;SDS011;18549;42.286;22.688;2023-05-10T04:09:24;12.03;;;3.17;;
32038;SDS011;18549;42.286;22.688;2023-05-10T04:11:51;16.30;;;3.97;;
32038;SDS011;18549;42.286;22.688;2023-05-10T04:14:22;9.00;;;2.93;;
32038;SDS011;18549;42.286;22.688;2023-05-10T04:16:49;10.57;;;3.60;;
32038;SDS011;18549;42.286;22.688;2023-05-10T04:19:16;15.67;;;3.70;;
32038;SDS011;18549;42.286;22.688;2023-05-10T04:21:44;12.30;;;3.43;;
32038;SDS011;18549;42.286;22.688;2023-05-10T04:24:11;12.17;;;4.07;;
32038;SDS011;18549;42.286;22.688;2023-05-10T04:26:38;17.07;;;3.97;;
32038;SDS011;18549;42.286;22.688;2023-05-10T04:29:07;10.67;;;4.50;;
32038;SDS011;18549;42.286;22.688;2023-05-10T04:31:38;18.83;;;4.37;;
32038;SDS011;18549;42.286;22.688;2023-05-10T04:34:09;9.03;;;4.63;;
32038;SDS011;18549;42.286;22.688;2023-05-10T04:36:39;15.57;;;3.70;;
32038;SDS011;18549;42.286;22.688;2023-05-10T04:39:06;12.77;;;4.43;;
32038;SDS011;18549;42.286;22.688;2023-05-10T04:41:40;9.83;;;2.87;;
32038;SDS011;18549;42.286;22.688;2023-05-10T04:44:19;5.63;;;3.53;;
32038;SDS011;18549;42.286;22.688;2023-05-10T04:46:47;10.67;;;3.57;;
32038;SDS011;18549;42.286;22.688;2023-05-10T04:49:15;21.80;;;4.33;;
32038;SDS011;18549;42.286;22.688;2023-05-10T04:51:43;11.93;;;4.83;;
32038;SDS011;18549;42.286;22.688;2023-05-10T04:54:10;13.90;;;3.83;;
32038;SDS011;18549;42.286;22.688;2023-05-10T04:56:38;21.50;;;5.83;;
32038;SDS011;18549;42.286;22.688;2023-05-10T04:59:09;15.73;;;5.63;;
32038;SDS011;18549;42.286;22.688;2023-05-10T05:01:37;21.13;;;5.57;;
32038;SDS011;18549;42.286;22.688;2023-05-10T05:04:06;23.03;;;5.67;;
32038;SDS011;18549;42.286;22.688;2023-05-10T05:06:34;23.77;;;6.23;;
32038;SDS011;18549;42.286;22.688;2023-05-10T05:09:01;16.90;;;5.80;;
32038;SDS011;18549;42.286;22.688;2023-05-10T05:11:28;13.07;;;5.33;;
32038;SDS011;18549;42.286;22.688;2023-05-10T05:14:03;22.60;;;6.03;;
32038;SDS011;18549;42.286;22.688;2023-05-10T05:16:31;17.43;;;5.13;;
32038;SDS011;18549;42.286;22.688;2023-05-10T05:19:01;16.67;;;4.80;;
32038;SDS011;18549;42.286;22.688;2023-05-10T05:24:15;14.17;;;5.00;;
32038;SDS011;18549;42.286;22.688;2023-05-10T05:26:46;27.07;;;6.07;;
32038;SDS011;18549;42.286;22.688;2023-05-10T05:29:14;18.33;;;4.80;;
32038;SDS011;18549;42.286;22.688;2023-05-10T05:31:44;17.63;;;5.47;;
32038;SDS011;18549;42.286;22.688;2023-05-10T05:34:13;37.93;;;6.73;;
32038;SDS011;18549;42.286;22.688;2023-05-10T05:36:40;16.83;;;4.50;;
32038;SDS011;18549;42.286;22.688;2023-05-10T05:41:58;23.93;;;4.97;;
32038;SDS011;18549;42.286;22.688;2023-05-10T05:44:28;18.17;;;5.57;;
32038;SDS011;18549;42.286;22.688;2023-05-10T05:46:55;11.60;;;4.90;;
32038;SDS011;18549;42.286;22.688;2023-05-10T05:49:22;21.63;;;4.97;;
32038;SDS011;18549;42.286;22.688;2023-05-10T05:51:49;25.03;;;10.80;;
32038;SDS011;18549;42.286;22.688;2023-05-10T05:54:17;13.17;;;5.10;;
32038;SDS011;18549;42.286;22.688;2023-05-10T05:56:46;11.13;;;5.80;;
32038;SDS011;18549;42.286;22.688;2023-05-10T05:59:17;15.17;;;5.47;;
32038;SDS011;18549;42.286;22.688;2023-05-10T06:01:44;11.50;;;4.93;;
32038;SDS011;18549;42.286;22.688;2023-05-10T06:04:11;8.67;;;4.50;;
32038;SDS011;18549;42.286;22.688;2023-05-10T06:06:52;14.80;;;5.93;;
32038;SDS011;18549;42.286;22.688;2023-05-10T06:09:20;11.23;;;4.70;;
32038;SDS011;18549;42.286;22.688;2023-05-10T06:11:54;12.80;;;5.23;;
32038;SDS011;18549;42.286;22.688;2023-05-10T06:14:26;11.40;;;5.40;;
32038;SDS011;18549;42.286;22.688;2023-05-10T06:16:55;10.93;;;5.23;;
32038;SDS011;18549;42.286;22.688;2023-05-10T06:19:25;11.73;;;5.77;;
32038;SDS011;18549;42.286;22.688;2023-05-10T06:21:53;12.40;;;6.00;;
32038;SDS011;18549;42.286;22.688;2023-05-10T06:24:21;19.87;;;5.83;;
32038;SDS011;18549;42.286;22.688;2023-05-10T06:26:54;10.63;;;6.20;;
32038;SDS011;18549;42.286;22.688;2023-05-10T06:29:25;12.43;;;5.30;;
32038;SDS011;18549;42.286;22.688;2023-05-10T06:31:59;14.50;;;4.83;;
32038;SDS011;18549;42.286;22.688;2023-05-10T06:34:28;16.10;;;5.23;;
32038;SDS011;18549;42.286;22.688;2023-05-10T06:36:55;11.17;;;5.07;;
32038;SDS011;18549;42.286;22.688;2023-05-10T06:39:25;11.13;;;4.47;;
32038;SDS011;18549;42.286;22.688;2023-05-10T06:41:54;13.50;;;4.07;;
32038;SDS011;18549;42.286;22.688;2023-05-10T06:44:23;8.53;;;4.77;;
32038;SDS011;18549;42.286;22.688;2023-05-10T06:46:51;12.00;;;5.70;;
32038;SDS011;18549;42.286;22.688;2023-05-10T06:49:20;6.07;;;3.97;;
32038;SDS011;18549;42.286;22.688;2023-05-10T06:51:47;10.07;;;5.30;;
32038;SDS011;18549;42.286;22.688;2023-05-10T06:54:15;11.33;;;4.17;;
32038;SDS011;18549;42.286;22.688;2023-05-10T06:56:42;4.43;;;3.33;;
32038;SDS011;18549;42.286;22.688;2023-05-10T06:59:11;10.03;;;4.20;;
32038;SDS011;18549;42.286;22.688;2023-05-10T07:01:40;5.43;;;3.83;;
32038;SDS011;18549;42.286;22.688;2023-05-10T07:04:07;8.10;;;4.70;;
32038;SDS011;18549;42.286;22.688;2023-05-10T07:06:34;5.73;;;4.03;;
32038;SDS011;18549;42.286;22.688;2023-05-10T07:09:03;7.27;;;4.40;;
32038;SDS011;18549;42.286;22.688;2023-05-10T07:11:30;6.67;;;4.37;;
32038;SDS011;18549;42.286;22.688;2023-05-10T07:13:57;6.90;;;5.10;;
32038;SDS011;18549;42.286;22.688;2023-05-10T07:16:28;9.23;;;4.80;;
32038;SDS011;18549;42.286;22.688;2023-05-10T07:18:56;7.97;;;4.63;;
32038;SDS011;18549;42.286;22.688;2023-05-10T07:21:28;5.13;;;4.30;;
32038;SDS011;18549;42.286;22.688;2023-05-10T07:24:00;10.57;;;5.37;;
32038;SDS011;18549;42.286;22.688;2023-05-10T07:26:28;8.03;;;5.07;;
32038;SDS011;18549;42.286;22.688;2023-05-10T07:28:55;10.33;;;5.27;;
32038;SDS011;18549;42.286;22.688;2023-05-10T07:31:22;9.63;;;5.63;;
32038;SDS011;18549;42.286;22.688;2023-05-10T07:33:53;15.13;;;5.67;;
32038;SDS011;18549;42.286;22.688;2023-05-10T07:36:23;18.63;;;5.83;;
32038;SDS011;18549;42.286;22.688;2023-05-10T07:38:50;12.70;;;6.17;;
32038;SDS011;18549;42.286;22.688;2023-05-10T07:41:23;18.47;;;5.30;;
32038;SDS011;18549;42.286;22.688;2023-05-10T07:43:52;21.17;;;6.20;;
32038;SDS011;18549;42.286;22.688;2023-05-10T07:46:19;27.60;;;6.97;;
32038;SDS011;18549;42.286;22.688;2023-05-10T07:48:48;31.53;;;6.50;;
32038;SDS011;18549;42.286;22.688;2023-05-10T07:51:17;19.97;;;9.27;;
32038;SDS011;18549;42.286;22.688;2023-05-10T07:53:45;17.60;;;7.97;;
32038;SDS011;18549;42.286;22.688;2023-05-10T07:56:23;19.63;;;6.40;;
32038;SDS011;18549;42.286;22.688;2023-05-10T07:58:54;20.30;;;7.03;;
32038;SDS011;18549;42.286;22.688;2023-05-10T08:01:25;14.63;;;8.47;;
32038;SDS011;18549;42.286;22.688;2023-05-10T08:03:52;24.40;;;5.93;;
32038;SDS011;18549;42.286;22.688;2023-05-10T08:06:22;15.93;;;5.70;;
32038;SDS011;18549;42.286;22.688;2023-05-10T08:08:50;17.37;;;7.17;;
32038;SDS011;18549;42.286;22.688;2023-05-10T08:11:19;14.43;;;5.90;;
32038;SDS011;18549;42.286;22.688;2023-05-10T08:13:47;19.83;;;6.90;;
32038;SDS011;18549;42.286;22.688;2023-05-10T08:16:17;24.47;;;8.57;;
32038;SDS011;18549;42.286;22.688;2023-05-10T08:18:44;15.67;;;7.10;;
32038;SDS011;18549;42.286;22.688;2023-05-10T08:21:15;26.20;;;7.27;;
32038;SDS011;18549;42.286;22.688;2023-05-10T08:23:43;17.13;;;7.60;;
32038;SDS011;18549;42.286;22.688;2023-05-10T08:26:14;12.53;;;6.43;;
32038;SDS011;18549;42.286;22.688;2023-05-10T08:28:42;20.80;;;6.77;;
32038;SDS011;18549;42.286;22.688;2023-05-10T08:31:10;22.67;;;7.73;;
32038;SDS011;18549;42.286;22.688;2023-05-10T08:33:39;15.03;;;7.27;;
32038;SDS011;18549;42.286;22.688;2023-05-10T08:36:07;21.73;;;8.37;;
32038;SDS011;18549;42.286;22.688;2023-05-10T08:38:37;14.53;;;5.40;;
32038;SDS011;18549;42.286;22.688;2023-05-10T08:41:05;22.47;;;5.50;;
32038;SDS011;18549;42.286;22.688;2023-05-10T08:43:37;27.10;;;5.70;;
32038;SDS011;18549;42.286;22.688;2023-05-10T08:46:11;12.77;;;6.13;;
32038;SDS011;18549;42.286;22.688;2023-05-10T08:48:42;18.63;;;8.33;;
32038;SDS011;18549;42.286;22.688;2023-05-10T08:51:12;13.10;;;6.33;;
32038;SDS011;18549;42.286;22.688;2023-05-10T08:53:43;12.07;;;6.90;;
32038;SDS011;18549;42.286;22.688;2023-05-10T08:56:10;12.23;;;7.17;;
32038;SDS011;18549;42.286;22.688;2023-05-10T08:58:44;20.83;;;8.53;;
32038;SDS011;18549;42.286;22.688;2023-05-10T09:01:20;12.90;;;7.53;;
32038;SDS011;18549;42.286;22.688;2023-05-10T09:03:48;13.67;;;7.77;;
32038;SDS011;18549;42.286;22.688;2023-05-10T09:06:20;15.93;;;8.47;;
32038;SDS011;18549;42.286;22.688;2023-05-10T09:08:48;20.10;;;7.23;;
32038;SDS011;18549;42.286;22.688;2023-05-10T09:11:18;13.90;;;7.07;;
32038;SDS011;18549;42.286;22.688;2023-05-10T09:13:48;17.47;;;7.57;;
32038;SDS011;18549;42.286;22.688;2023-05-10T09:16:17;18.93;;;10.23;;
32038;SDS011;18549;42.286;22.688;2023-05-10T09:18:47;13.53;;;8.37;;
32038;SDS011;18549;42.286;22.688;2023-05-10T09:21:18;13.83;;;6.77;;
32038;SDS011;18549;42.286;22.688;2023-05-10T09:23:45;11.27;;;6.70;;
32038;SDS011;18549;42.286;22.688;2023-05-10T09:26:15;16.37;;;8.77;;
32038;SDS011;18549;42.286;22.688;2023-05-10T09:28:57;11.60;;;7.97;;
32038;SDS011;18549;42.286;22.688;2023-05-10T09:34:15;15.17;;;7.73;;
32038;SDS011;18549;42.286;22.688;2023-05-10T09:36:50;17.50;;;8.23;;
32038;SDS011;18549;42.286;22.688;2023-05-10T09:39:29;14.87;;;9.57;;
32038;SDS011;18549;42.286;22.688;2023-05-10T09:41:58;11.50;;;6.47;;
32038;SDS011;18549;42.286;22.688;2023-05-10T09:44:28;13.53;;;6.30;;
32038;SDS011;18549;42.286;22.688;2023-05-10T09:46:58;10.20;;;7.07;;
32038;SDS011;18549;42.286;22.688;2023-05-10T09:49:26;18.80;;;6.47;;
32038;SDS011;18549;42.286;22.688;2023-05-10T09:52:01;13.27;;;7.13;;
32038;SDS011;18549;42.286;22.688;2023-05-10T09:54:30;11.03;;;7.43;;
32038;SDS011;18549;42.286;22.688;2023-05-10T09:57:02;14.13;;;8.20;;
32038;SDS011;18549;42.286;22.688;2023-05-10T09:59:33;9.30;;;6.93;;
32038;SDS011;18549;42.286;22.688;2023-05-10T10:02:01;17.97;;;6.93;;
32038;SDS011;18549;42.286;22.688;2023-05-10T10:04:28;14.37;;;7.63;;
32038;SDS011;18549;42.286;22.688;2023-05-10T10:06:58;7.20;;;6.30;;
32038;SDS011;18549;42.286;22.688;2023-05-10T10:09:27;7.80;;;5.17;;
32038;SDS011;18549;42.286;22.688;2023-05-10T10:11:56;11.97;;;5.30;;
32038;SDS011;18549;42.286;22.688;2023-05-10T10:14:24;9.57;;;6.23;;
32038;SDS011;18549;42.286;22.688;2023-05-10T10:16:53;9.33;;;5.17;;
32038;SDS011;18549;42.286;22.688;2023-05-10T10:19:21;10.60;;;5.10;;
32038;SDS011;18549;42.286;22.688;2023-05-10T10:21:49;10.13;;;5.10;;
32038;SDS011;18549;42.286;22.688;2023-05-10T10:24:16;10.93;;;5.23;;
32038;SDS011;18549;42.286;22.688;2023-05-10T10:26:49;7.80;;;4.60;;
32038;SDS011;18549;42.286;22.688;2023-05-10T10:29:36;6.87;;;5.00;;
32038;SDS011;18549;42.286;22.688;2023-05-10T10:32:19;14.23;;;5.80;;
32038;SDS011;18549;42.286;22.688;2023-05-10T10:34:55;11.77;;;7.20;;
32038;SDS011;18549;42.286;22.688;2023-05-10T10:37:23;6.80;;;5.60;;
32038;SDS011;18549;42.286;22.688;2023-05-10T10:40:22;12.97;;;7.33;;
32038;SDS011;18549;42.286;22.688;2023-05-10T10:42:50;14.47;;;7.70;;
32038;SDS011;18549;42.286;22.688;2023-05-10T10:45:18;13.03;;;10.97;;
32038;SDS011;18549;42.286;22.688;2023-05-10T10:47:49;14.80;;;11.17;;
32038;SDS011;18549;42.286;22.688;2023-05-10T10:50:20;20.60;;;12.17;;
32038;SDS011;18549;42.286;22.688;2023-05-10T10:52:53;16.00;;;12.27;;
32038;SDS011;18549;42.286;22.688;2023-05-10T10:55:41;16.67;;;11.60;;
32038;SDS011;18549;42.286;22.688;2023-05-10T10:58:12;15.40;;;10.87;;
32038;SDS011;18549;42.286;22.688;2023-05-10T11:01:11;14.70;;;10.13;;
32038;SDS011;18549;42.286;22.688;2023-05-10T11:03:54;21.90;;;14.93;;
32038;SDS011;18549;42.286;22.688;2023-05-10T11:06:42;17.50;;;13.17;;
32038;SDS011;18549;42.286;22.688;2023-05-10T11:09:10;17.93;;;13.93;;
32038;SDS011;18549;42.286;22.688;2023-05-10T11:11:50;15.33;;;9.70;;
32038;SDS011;18549;42.286;22.688;2023-05-10T11:14:20;10.23;;;8.67;;
32038;SDS011;18549;42.286;22.688;2023-05-10T11:19:19;10.33;;;8.67;;
32038;SDS011;18549;42.286;22.688;2023-05-10T11:21:47;13.17;;;8.90;;
32038;SDS011;18549;42.286;22.688;2023-05-10T11:24:16;17.83;;;8.10;;
32038;SDS011;18549;42.286;22.688;2023-05-10T11:26:45;12.87;;;8.90;;
32038;SDS011;18549;42.286;22.688;2023-05-10T11:29:13;10.47;;;8.40;;
32038;SDS011;18549;42.286;22.688;2023-05-10T11:31:43;10.07;;;7.70;;
32038;SDS011;18549;42.286;22.688;2023-05-10T11:34:12;11.70;;;8.83;;
32038;SDS011;18549;42.286;22.688;2023-05-10T11:36:52;16.87;;;9.83;;
32038;SDS011;18549;42.286;22.688;2023-05-10T11:39:21;11.47;;;7.30;;
32038;SDS011;18549;42.286;22.688;2023-05-10T11:41:52;8.17;;;6.93;;
32038;SDS011;18549;42.286;22.688;2023-05-10T11:44:19;8.87;;;7.33;;
32038;SDS011;18549;42.286;22.688;2023-05-10T11:46:48;10.10;;;7.53;;
32038;SDS011;18549;42.286;22.688;2023-05-10T11:49:21;13.40;;;8.07;;
32038;SDS011;18549;42.286;22.688;2023-05-10T11:51:54;13.27;;;7.40;;
32038;SDS011;18549;42.286;22.688;2023-05-10T11:54:32;12.20;;;7.57;;
32038;SDS011;18549;42.286;22.688;2023-05-10T11:57:03;12.30;;;7.93;;
32038;SDS011;18549;42.286;22.688;2023-05-10T11:59:36;8.60;;;7.03;;
32038;SDS011;18549;42.286;22.688;2023-05-10T12:02:03;8.90;;;7.47;;
32038;SDS011;18549;42.286;22.688;2023-05-10T12:04:36;9.80;;;6.70;;
32038;SDS011;18549;42.286;22.688;2023-05-10T12:07:04;8.33;;;6.67;;
32038;SDS011;18549;42.286;22.688;2023-05-10T12:09:31;9.57;;;7.77;;
32038;SDS011;18549;42.286;22.688;2023-05-10T12:12:02;11.63;;;7.83;;
32038;SDS011;18549;42.286;22.688;2023-05-10T12:14:33;10.23;;;7.60;;
32038;SDS011;18549;42.286;22.688;2023-05-10T12:17:02;14.37;;;8.53;;
32038;SDS011;18549;42.286;22.688;2023-05-10T12:19:43;12.57;;;9.50;;
32038;SDS011;18549;42.286;22.688;2023-05-10T12:22:10;11.67;;;8.00;;
32038;SDS011;18549;42.286;22.688;2023-05-10T12:24:39;17.77;;;10.50;;
32038;SDS011;18549;42.286;22.688;2023-05-10T12:27:11;16.60;;;8.10;;
32038;SDS011;18549;42.286;22.688;2023-05-10T12:29:41;14.20;;;8.27;;
32038;SDS011;18549;42.286;22.688;2023-05-10T12:32:10;10.57;;;9.10;;
32038;SDS011;18549;42.286;22.688;2023-05-10T12:34:37;10.90;;;7.83;;
32038;SDS011;18549;42.286;22.688;2023-05-10T12:37:11;11.10;;;7.60;;
32038;SDS011;18549;42.286;22.688;2023-05-10T12:39:40;9.60;;;6.10;;
32038;SDS011;18549;42.286;22.688;2023-05-10T12:42:22;12.07;;;8.07;;
32038;SDS011;18549;42.286;22.688;2023-05-10T12:44:54;9.83;;;7.97;;
32038;SDS011;18549;42.286;22.688;2023-05-10T12:47:22;11.40;;;7.17;;
32038;SDS011;18549;42.286;22.688;2023-05-10T12:49:50;10.50;;;7.60;;
32038;SDS011;18549;42.286;22.688;2023-05-10T12:59:15;13.93;;;9.90;;
32038;SDS011;18549;42.286;22.688;2023-05-10T13:01:42;15.77;;;8.60;;
32038;SDS011;18549;42.286;22.688;2023-05-10T13:04:09;11.60;;;8.87;;
32038;SDS011;18549;42.286;22.688;2023-05-10T13:06:35;11.63;;;8.60;;
32038;SDS011;18549;42.286;22.688;2023-05-10T13:09:02;15.13;;;9.17;;
32038;SDS011;18549;42.286;22.688;2023-05-10T13:11:29;16.90;;;9.40;;
32038;SDS011;18549;42.286;22.688;2023-05-10T13:13:56;13.83;;;10.27;;
32038;SDS011;18549;42.286;22.688;2023-05-10T13:16:24;15.17;;;9.10;;
32038;SDS011;18549;42.286;22.688;2023-05-10T13:18:51;9.10;;;8.17;;
32038;SDS011;18549;42.286;22.688;2023-05-10T13:21:18;12.83;;;9.17;;
32038;SDS011;18549;42.286;22.688;2023-05-10T13:23:45;11.27;;;6.87;;
32038;SDS011;18549;42.286;22.688;2023-05-10T13:26:13;15.30;;;8.00;;
32038;SDS011;18549;42.286;22.688;2023-05-10T13:28:40;11.43;;;7.43;;
32038;SDS011;18549;42.286;22.688;2023-05-10T13:31:06;10.37;;;8.00;;
32038;SDS011;18549;42.286;22.688;2023-05-10T13:33:34;13.73;;;8.83;;
32038;SDS011;18549;42.286;22.688;2023-05-10T13:36:01;9.87;;;6.80;;
32038;SDS011;18549;42.286;22.688;2023-05-10T13:38:28;14.03;;;8.80;;
32038;SDS011;18549;42.286;22.688;2023-05-10T13:40:55;7.87;;;7.00;;
32038;SDS011;18549;42.286;22.688;2023-05-10T13:43:22;12.60;;;7.47;;
32038;SDS011;18549;42.286;22.688;2023-05-10T13:45:49;17.97;;;9.63;;
32038;SDS011;18549;42.286;22.688;2023-05-10T13:48:17;13.87;;;10.37;;
32038;SDS011;18549;42.286;22.688;2023-05-10T13:50:45;15.83;;;9.87;;
32038;SDS011;18549;42.286;22.688;2023-05-10T13:53:12;13.53;;;9.37;;
32038;SDS011;18549;42.286;22.688;2023-05-10T13:59:01;15.53;;;8.37;;
32038;SDS011;18549;42.286;22.688;2023-05-10T14:01:28;12.67;;;9.53;;
32038;SDS011;18549;42.286;22.688;2023-05-10T14:03:54;17.13;;;10.47;;
32038;SDS011;18549;42.286;22.688;2023-05-10T14:06:22;14.17;;;9.63;;
32038;SDS011;18549;42.286;22.688;2023-05-10T14:08:49;17.27;;;11.67;;
32038;SDS011;18549;42.286;22.688;2023-05-10T14:11:17;10.90;;;8.93;;
32038;SDS011;18549;42.286;22.688;2023-05-10T14:13:43;19.43;;;9.03;;
32038;SDS011;18549;42.286;22.688;2023-05-10T14:16:10;11.97;;;10.67;;
32038;SDS011;18549;42.286;22.688;2023-05-10T14:18:39;14.07;;;9.63;;
32038;SDS011;18549;42.286;22.688;2023-05-10T14:21:06;16.67;;;8.57;;
32038;SDS011;18549;42.286;22.688;2023-05-10T14:23:34;20.07;;;9.50;;
32038;SDS011;18549;42.286;22.688;2023-05-10T14:26:01;12.00;;;9.00;;
32038;SDS011;18549;42.286;22.688;2023-05-10T14:28:27;17.70;;;10.00;;
32038;SDS011;18549;42.286;22.688;2023-05-10T14:30:55;16.63;;;12.93;;
32038;SDS011;18549;42.286;22.688;2023-05-10T14:33:22;22.43;;;12.10;;
32038;SDS011;18549;42.286;22.688;2023-05-10T14:35:48;13.43;;;10.47;;
32038;SDS011;18549;42.286;22.688;2023-05-10T14:38:15;25.17;;;12.37;;
32038;SDS011;18549;42.286;22.688;2023-05-10T14:40:43;16.80;;;11.93;;
32038;SDS011;18549;42.286;22.688;2023-05-10T14:43:10;14.50;;;10.43;;
32038;SDS011;18549;42.286;22.688;2023-05-10T14:45:37;13.20;;;10.23;;
32038;SDS011;18549;42.286;22.688;2023-05-10T14:48:04;13.63;;;10.40;;
32038;SDS011;18549;42.286;22.688;2023-05-10T14:50:31;17.87;;;12.57;;
32038;SDS011;18549;42.286;22.688;2023-05-10T14:56:05;19.47;;;11.20;;
32038;SDS011;18549;42.286;22.688;2023-05-10T14:58:33;16.20;;;12.90;;
32038;SDS011;18549;42.286;22.688;2023-05-10T15:01:00;22.20;;;14.07;;
32038;SDS011;18549;42.286;22.688;2023-05-10T15:03:27;19.07;;;11.97;;
32038;SDS011;18549;42.286;22.688;2023-05-10T15:05:54;17.23;;;11.40;;